Terminal Aerodrome Forecast
Issued by NWS

Home | Current Version | Previous Version | Text Only | Print | Product List | Glossary On
Versions: 1 2 3 4 5 6 7 8 9 10 11 12 13 14 15
000
FTUS45 KRIW 232300
TAFCPR
TAF
KCPR 232324Z 2400/2424 23014G20KT P6SM FEW120 BKN250
     FM241800 23024G34KT P6SM SCT120 SCT250
     FM242100 23016G26KT P6SM SCT250
     FM242300 23010KT P6SM SCT250=

USA.gov is the U.S. government's official web portal to all federal, state and local government web resources and services.